createdAt,value
2023-01-19T00:02:14.493Z,70.26
2023-01-19T00:05:20.960Z,60.76
2023-01-19T00:08:27.532Z,55.53
2023-01-19T00:11:33.376Z,52.84
2023-01-19T00:14:40.076Z,49.24
2023-01-19T00:17:48.496Z,46.49
2023-01-19T00:20:55.108Z,47.17
2023-01-19T00:24:00.852Z,45.68
2023-01-19T00:27:07.702Z,44.36
2023-01-19T00:30:15.419Z,43.74
2023-01-19T00:33:26.118Z,44.25
2023-01-19T00:36:32.091Z,43.11
2023-01-19T00:39:38.930Z,49.12
2023-01-19T00:42:48.488Z,49.87
2023-01-19T00:45:55.246Z,49.01
2023-01-19T00:49:03.662Z,46.21
2023-01-19T00:52:10.994Z,47.53
2023-01-19T00:55:19.490Z,45.13
2023-01-19T00:58:26.183Z,44.62
2023-01-19T01:01:45.907Z,43.64
2023-01-19T01:04:56.901Z,41.58
2023-01-19T01:08:02.870Z,43.59
2023-01-19T01:11:09.480Z,43.27
2023-01-19T01:14:16.653Z,43.73
2023-01-19T01:17:25.125Z,42.19
2023-01-19T01:20:34.930Z,44.15
2023-01-19T01:23:41.595Z,44.60
2023-01-19T01:26:47.446Z,46.26
2023-01-19T01:29:54.200Z,46.77
2023-01-19T01:33:00.358Z,47.37
2023-01-19T01:36:12.061Z,49.37
2023-01-19T01:39:18.059Z,49.85
2023-01-19T01:42:32.774Z,52.19
2023-01-19T01:45:42.021Z,53.23
2023-01-19T01:48:57.444Z,53.65
2023-01-19T01:52:06.315Z,53.76
2023-01-19T01:55:16.802Z,52.56
2023-01-19T01:58:22.705Z,51.66
2023-01-19T02:01:41.846Z,49.54
2023-01-19T02:04:55.119Z,47.66
2023-01-19T02:08:24.324Z,45.90
2023-01-19T02:11:45.335Z,45.35
2023-01-19T02:14:52.016Z,45.68
2023-01-19T02:17:58.728Z,46.86
2023-01-19T02:21:19.055Z,50.11
2023-01-19T02:24:29.629Z,80.97
2023-01-19T02:27:37.984Z,69.75
2023-01-19T02:30:45.578Z,54.72
2023-01-19T02:33:53.048Z,58.04
2023-01-19T02:37:06.818Z,62.54
2023-01-19T02:40:24.619Z,62.76
2023-01-19T02:43:33.784Z,62.04
2023-01-19T02:46:42.233Z,60.64
2023-01-19T02:49:48.189Z,62.18
2023-01-19T02:53:11.069Z,61.61
2023-01-19T02:56:56.046Z,59.62
2023-01-19T03:00:24.838Z,60.46
2023-01-19T03:03:42.365Z,64.79
2023-01-19T03:06:58.274Z,66.25
2023-01-19T03:10:16.073Z,73.83
2023-01-19T03:13:39.319Z,67.05
2023-01-19T03:16:50.953Z,64.14
2023-01-19T03:19:57.668Z,59.06
2023-01-19T03:23:11.215Z,55.25
2023-01-19T03:26:24.993Z,55.71
2023-01-19T03:29:38.133Z,53.80
2023-01-19T03:32:53.861Z,56.68
2023-01-19T03:36:07.268Z,62.80
2023-01-19T03:39:22.083Z,67.70
2023-01-19T03:42:31.292Z,67.02
2023-01-19T03:45:43.471Z,65.90
2023-01-19T03:48:51.055Z,65.67
2023-01-19T03:51:59.660Z,65.91
2023-01-19T03:55:09.983Z,65.20
2023-01-19T03:58:17.469Z,64.40
2023-01-19T04:01:26.453Z,65.25
2023-01-19T04:04:34.136Z,64.33
2023-01-19T04:07:39.953Z,63.29
2023-01-19T04:10:46.610Z,59.86
2023-01-19T04:13:52.795Z,57.35
2023-01-19T04:17:02.212Z,55.54
2023-01-19T04:20:10.791Z,57.79
2023-01-19T04:23:17.355Z,57.81
2023-01-19T04:26:23.271Z,54.84
2023-01-19T04:29:29.990Z,51.31
2023-01-19T04:32:38.461Z,54.58
2023-01-19T04:35:45.182Z,67.38
2023-01-19T04:38:51.237Z,75.55
2023-01-19T04:41:57.837Z,75.07
2023-01-19T04:45:03.873Z,73.41
2023-01-19T04:48:13.064Z,73.28
2023-01-19T04:51:18.838Z,79.14
2023-01-19T04:54:25.934Z,80.19
2023-01-19T04:57:32.003Z,81.34
2023-01-19T05:00:39.612Z,91.50
2023-01-19T05:03:48.087Z,99.59
2023-01-19T05:06:54.917Z,99.53
2023-01-19T05:10:00.868Z,104.33
2023-01-19T05:13:08.174Z,112.07
2023-01-19T05:16:14.291Z,108.57
2023-01-19T05:19:23.831Z,105.02
2023-01-19T05:22:29.814Z,103.54
2023-01-19T05:25:36.523Z,92.41
2023-01-19T05:28:42.463Z,82.62
2023-01-19T05:31:49.266Z,83.52
2023-01-19T05:34:57.809Z,93.99
2023-01-19T05:38:04.456Z,95.89
2023-01-19T05:41:10.292Z,99.05
2023-01-19T05:44:17.122Z,98.81
2023-01-19T05:47:22.905Z,96.93
2023-01-19T05:50:32.280Z,93.53
2023-01-19T05:53:38.136Z,85.04
2023-01-19T05:56:45.743Z,89.74
2023-01-19T05:59:51.598Z,99.72
2023-01-19T06:02:58.458Z,83.84
2023-01-19T06:06:07.964Z,81.46
2023-01-19T06:09:14.531Z,81.09
2023-01-19T06:12:20.316Z,81.37
2023-01-19T06:15:26.855Z,79.85
2023-01-19T06:18:33.648Z,76.69
2023-01-19T06:21:43.125Z,76.69
2023-01-19T06:24:49.024Z,83.75
2023-01-19T06:27:56.153Z,81.15
2023-01-19T06:31:01.989Z,85.02
2023-01-19T06:34:08.635Z,88.35
2023-01-19T06:37:17.864Z,88.98
2023-01-19T06:40:24.429Z,88.77
2023-01-19T06:43:33.549Z,90.36
2023-01-19T06:46:40.207Z,91.17
2023-01-19T06:49:46.797Z,89.25
2023-01-19T06:52:56.959Z,88.29
2023-01-19T06:56:05.104Z,89.04
2023-01-19T06:59:12.779Z,86.48
2023-01-19T07:06:10.363Z,93.38
2023-01-19T07:09:34.608Z,93.90
2023-01-19T07:12:42.410Z,91.10
2023-01-19T07:15:50.272Z,89.90
2023-01-19T07:18:56.319Z,89.54
2023-01-19T07:22:03.368Z,92.32
2023-01-19T07:25:13.363Z,91.68
2023-01-19T07:28:21.337Z,92.07
2023-01-19T07:31:27.693Z,92.05
2023-01-19T07:34:41.805Z,90.75
2023-01-19T07:41:46.011Z,91.88
2023-01-19T07:44:54.353Z,89.44
2023-01-19T07:48:00.717Z,89.90
2023-01-19T07:51:13.067Z,89.72
2023-01-19T07:54:20.942Z,87.86
2023-01-19T07:57:34.394Z,88.83
2023-01-19T08:00:42.176Z,86.19
2023-01-19T08:03:51.861Z,83.36
2023-01-19T08:07:01.986Z,80.48
2023-01-19T08:10:11.016Z,80.04
2023-01-19T08:13:19.481Z,80.14
2023-01-19T08:16:26.044Z,74.08
2023-01-19T08:19:34.365Z,74.16
2023-01-19T08:22:41.084Z,74.27
2023-01-19T08:25:47.701Z,72.29
2023-01-19T08:28:57.945Z,73.76
2023-01-19T08:32:04.043Z,75.31
2023-01-19T08:35:12.069Z,72.16
2023-01-19T08:38:21.199Z,66.24
2023-01-19T08:41:28.072Z,66.06
2023-01-19T08:44:39.393Z,63.83
2023-01-19T08:47:48.145Z,61.22
2023-01-19T08:50:56.296Z,59.72
2023-01-19T08:54:02.919Z,60.49
2023-01-19T08:57:08.624Z,61.33
2023-01-19T09:00:19.796Z,62.76
2023-01-19T09:03:26.030Z,63.83
2023-01-19T09:06:32.931Z,62.19
2023-01-19T09:09:43.543Z,59.29
2023-01-19T09:12:50.568Z,56.63
2023-01-19T09:15:59.055Z,55.89
2023-01-19T09:19:08.708Z,55.28
2023-01-19T09:22:14.717Z,54.92
2023-01-19T09:25:21.350Z,54.90
2023-01-19T09:28:27.306Z,52.93
2023-01-19T09:31:36.651Z,52.21
2023-01-19T09:34:42.708Z,59.36
2023-01-19T09:37:50.309Z,48.88
2023-01-19T09:40:59.422Z,46.36
2023-01-19T09:44:06.715Z,43.81
2023-01-19T09:47:25.400Z,45.31
2023-01-19T09:50:46.719Z,45.02
2023-01-19T09:54:06.093Z,44.47
2023-01-19T09:57:15.009Z,48.60
2023-01-19T10:00:22.876Z,45.81
2023-01-19T10:03:33.649Z,44.44
2023-01-19T10:06:40.079Z,46.45
2023-01-19T10:10:10.191Z,44.91
2023-01-19T10:13:42.195Z,44.27
2023-01-19T10:17:05.632Z,46.09
2023-01-19T10:20:26.937Z,48.10
2023-01-19T10:23:49.056Z,74.17
2023-01-19T10:27:00.083Z,49.94
2023-01-19T10:30:18.102Z,47.25
2023-01-19T10:33:24.135Z,47.37
2023-01-19T10:36:41.133Z,48.16
2023-01-19T10:39:49.065Z,45.48
2023-01-19T10:42:56.848Z,45.77
2023-01-19T10:46:03.293Z,47.12
2023-01-19T10:49:25.957Z,49.77
2023-01-19T10:52:41.374Z,46.56
2023-01-19T10:55:48.045Z,46.21
2023-01-19T10:58:54.874Z,49.07
2023-01-19T11:02:22.510Z,50.73
2023-01-19T11:05:32.581Z,53.57
2023-01-19T11:08:41.806Z,52.91
2023-01-19T11:11:52.368Z,46.29
2023-01-19T11:15:00.197Z,49.85
2023-01-19T11:18:10.383Z,81.85
2023-01-19T11:21:20.446Z,49.50
2023-01-19T11:24:29.540Z,47.67
2023-01-19T11:27:40.184Z,44.70
2023-01-19T11:30:59.459Z,45.14
2023-01-19T11:34:24.998Z,46.58
2023-01-19T11:37:34.893Z,51.36
2023-01-19T11:40:55.028Z,54.55
2023-01-19T11:44:12.923Z,50.40
2023-01-19T11:47:29.497Z,80.32
2023-01-19T11:50:45.567Z,53.63
2023-01-19T11:53:56.149Z,99.77
2023-01-19T11:57:17.800Z,87.31
2023-01-19T12:00:37.804Z,72.58
2023-01-19T12:03:54.864Z,98.03
2023-01-19T12:07:10.814Z,119.22
2023-01-19T12:10:28.840Z,106.05
2023-01-19T12:13:40.368Z,228.46
2023-01-19T12:16:48.866Z,140.23
2023-01-19T12:20:06.641Z,111.34
2023-01-19T12:23:38.229Z,115.95
2023-01-19T12:26:56.375Z,103.67
2023-01-19T12:30:07.260Z,101.45
2023-01-19T12:33:36.221Z,89.75
2023-01-19T12:36:44.162Z,66.05
2023-01-19T12:39:52.526Z,85.25
2023-01-19T12:43:08.735Z,71.06
2023-01-19T12:46:34.832Z,75.17
2023-01-19T12:49:48.659Z,63.74
2023-01-19T12:53:02.773Z,62.77
2023-01-19T12:56:12.936Z,50.53
2023-01-19T12:59:30.663Z,55.65
2023-01-19T13:02:58.972Z,49.45
2023-01-19T13:06:05.664Z,49.34
2023-01-19T13:09:33.498Z,37.75
2023-01-19T13:12:40.171Z,37.81
2023-01-19T13:15:47.334Z,39.05
2023-01-19T13:19:01.805Z,39.19
2023-01-19T13:22:53.130Z,39.34
2023-01-19T13:26:09.174Z,39.14
2023-01-19T13:29:25.969Z,110.86
2023-01-19T13:32:33.154Z,115.29
2023-01-19T13:35:41.909Z,64.24
2023-01-19T13:38:50.530Z,49.80
2023-01-19T13:42:03.012Z,50.48
2023-01-19T13:45:30.652Z,52.79
2023-01-19T13:48:37.270Z,47.10
2023-01-19T13:51:47.912Z,148.03
2023-01-19T13:55:02.357Z,112.21
2023-01-19T13:58:26.205Z,188.89
2023-01-19T14:01:33.170Z,155.81
2023-01-19T14:04:40.136Z,191.03
2023-01-19T14:07:48.637Z,112.28
2023-01-19T14:11:07.093Z,100.90
2023-01-19T14:14:27.574Z,122.16
2023-01-19T14:17:35.789Z,381.58
2023-01-19T14:20:42.725Z,151.19
2023-01-19T14:23:57.132Z,347.33
2023-01-19T14:27:26.221Z,380.87
2023-01-19T14:30:35.278Z,129.90
2023-01-19T14:33:47.262Z,78.22
2023-01-19T14:36:55.520Z,168.66
2023-01-19T14:40:20.367Z,125.36
2023-01-19T14:43:28.744Z,75.84
2023-01-19T14:46:34.841Z,232.52
2023-01-19T14:49:50.259Z,121.85
2023-01-19T14:53:03.676Z,52.59
2023-01-19T14:56:13.587Z,112.27
2023-01-19T14:59:19.419Z,174.11
2023-01-19T15:02:26.181Z,78.64
2023-01-19T15:05:32.313Z,78.70
2023-01-19T15:08:39.209Z,63.12
2023-01-19T15:11:52.594Z,54.22
2023-01-19T15:15:00.150Z,54.26
2023-01-19T15:18:10.032Z,84.55
2023-01-19T15:21:20.214Z,51.25
2023-01-19T15:24:27.969Z,44.71
2023-01-19T15:27:37.118Z,48.85
2023-01-19T15:30:43.380Z,68.02
2023-01-19T15:33:50.945Z,104.24
2023-01-19T15:36:56.859Z,99.07
2023-01-19T15:40:03.554Z,124.53
2023-01-19T15:43:13.703Z,167.61
2023-01-19T15:46:23.837Z,124.43
2023-01-19T15:49:31.072Z,104.66
2023-01-19T15:52:37.565Z,150.87
2023-01-19T15:55:46.148Z,135.88
2023-01-19T15:58:56.374Z,108.89
2023-01-19T16:02:02.885Z,360.58
2023-01-19T16:05:11.159Z,224.48
2023-01-19T16:08:17.702Z,205.38
2023-01-19T16:11:24.291Z,147.11
2023-01-19T16:14:32.915Z,98.50
2023-01-19T16:17:40.025Z,120.15
2023-01-19T16:20:45.955Z,98.59
2023-01-19T16:23:52.785Z,90.39
2023-01-19T16:26:58.651Z,78.00
2023-01-19T16:30:10.049Z,64.25
2023-01-19T16:33:16.397Z,69.53
2023-01-19T16:36:27.020Z,71.14
2023-01-19T16:39:32.896Z,62.71
2023-01-19T16:42:40.908Z,52.15
2023-01-19T16:46:04.677Z,48.71
2023-01-19T16:49:17.863Z,47.44
2023-01-19T16:52:23.846Z,44.73
2023-01-19T16:55:30.419Z,45.04
2023-01-19T16:58:37.632Z,43.72
2023-01-19T17:01:50.595Z,42.95
2023-01-19T17:04:56.678Z,45.62
2023-01-19T17:08:03.502Z,45.52
2023-01-19T17:11:19.578Z,47.96
2023-01-19T17:14:26.163Z,49.74
2023-01-19T17:17:35.342Z,54.33
2023-01-19T17:20:43.459Z,55.44
2023-01-19T17:23:53.654Z,55.19
2023-01-19T17:27:00.444Z,75.78
2023-01-19T17:30:06.424Z,68.13
2023-01-19T17:33:15.909Z,74.98
2023-01-19T17:36:25.566Z,64.82
2023-01-19T17:39:32.458Z,60.95
2023-01-19T17:42:43.771Z,69.58
2023-01-19T17:45:50.367Z,82.88
2023-01-19T17:49:01.723Z,83.51
2023-01-19T17:52:08.829Z,74.65
2023-01-19T17:55:15.049Z,74.37
2023-01-19T17:58:23.734Z,74.68
2023-01-19T18:01:32.647Z,64.62
2023-01-19T18:04:43.534Z,60.78
2023-01-19T18:07:50.191Z,61.49
2023-01-19T18:11:14.279Z,57.99
2023-01-19T18:14:20.234Z,56.51
2023-01-19T18:17:26.791Z,67.57
2023-01-19T18:20:37.852Z,57.61
2023-01-19T18:23:46.002Z,50.99
2023-01-19T18:26:53.218Z,54.14
2023-01-19T18:30:01.549Z,59.63
2023-01-19T18:33:07.731Z,68.77
2023-01-19T18:36:18.318Z,75.54
2023-01-19T18:39:24.238Z,73.82
2023-01-19T18:42:30.942Z,92.67
2023-01-19T18:45:38.289Z,66.62
2023-01-19T18:48:45.333Z,59.65
2023-01-19T18:51:53.850Z,88.97
2023-01-19T18:55:00.568Z,90.74
2023-01-19T18:58:07.279Z,84.53
2023-01-19T19:01:32.264Z,87.39
2023-01-19T19:04:38.729Z,61.83
2023-01-19T19:07:48.313Z,64.47
2023-01-19T19:10:54.411Z,66.10
2023-01-19T19:14:04.825Z,73.63
2023-01-19T19:17:11.007Z,80.76
2023-01-19T19:20:18.130Z,59.08
2023-01-19T19:23:26.769Z,56.98
2023-01-19T19:26:33.326Z,66.08
2023-01-19T19:29:39.213Z,67.65
2023-01-19T19:32:45.731Z,72.91
2023-01-19T19:35:51.670Z,82.69
2023-01-19T19:39:02.795Z,69.14
2023-01-19T19:42:08.762Z,71.84
2023-01-19T19:45:16.130Z,65.40
2023-01-19T19:48:23.136Z,71.24
2023-01-19T19:51:31.282Z,105.56
2023-01-19T19:54:42.092Z,86.20
2023-01-19T19:57:48.915Z,119.04
2023-01-19T20:00:55.236Z,96.58
2023-01-19T20:04:10.971Z,83.52
2023-01-19T20:07:18.032Z,118.72
2023-01-19T20:10:30.145Z,114.11
2023-01-19T20:13:37.316Z,105.87
2023-01-19T20:16:43.972Z,90.47
2023-01-19T20:19:49.999Z,97.82
2023-01-19T20:22:56.673Z,88.72
2023-01-19T20:26:08.111Z,99.35
2023-01-19T20:29:15.212Z,116.29
2023-01-19T20:32:23.036Z,96.52
2023-01-19T20:35:29.874Z,89.33
2023-01-19T20:38:36.260Z,73.56
2023-01-19T20:41:46.315Z,63.18
2023-01-19T20:44:52.416Z,70.63
2023-01-19T20:47:59.115Z,64.46
2023-01-19T20:51:08.579Z,57.26
2023-01-19T20:54:17.850Z,61.26
2023-01-19T20:57:26.664Z,54.64
2023-01-19T21:00:33.429Z,52.58
2023-01-19T21:03:39.393Z,58.33
2023-01-19T21:06:48.052Z,62.25
2023-01-19T21:09:53.858Z,52.84
2023-01-19T21:13:03.031Z,53.26
2023-01-19T21:16:11.032Z,55.39
2023-01-19T21:19:18.101Z,52.50
2023-01-19T21:22:26.329Z,55.35
2023-01-19T21:25:37.477Z,56.13
2023-01-19T21:28:46.440Z,58.18
2023-01-19T21:31:57.552Z,71.49
2023-01-19T21:35:03.630Z,67.26
2023-01-19T21:38:10.784Z,57.73
2023-01-19T21:41:17.364Z,52.24
2023-01-19T21:44:26.818Z,56.57
2023-01-19T21:47:32.684Z,59.81
2023-01-19T21:50:39.861Z,61.52
2023-01-19T21:53:47.363Z,60.15
2023-01-19T21:56:54.197Z,60.79
2023-01-19T22:00:02.684Z,55.42
2023-01-19T22:03:14.721Z,56.25
2023-01-19T22:06:20.697Z,60.87
2023-01-19T22:09:27.345Z,56.26
2023-01-19T22:12:33.255Z,56.94
2023-01-19T22:15:42.551Z,57.09
2023-01-19T22:18:54.215Z,67.84
2023-01-19T22:22:02.351Z,62.80
2023-01-19T22:25:09.482Z,66.25
2023-01-19T22:28:16.216Z,70.81
2023-01-19T22:31:26.305Z,55.45
2023-01-19T22:34:32.986Z,54.80
2023-01-19T22:37:40.155Z,58.01
2023-01-19T22:40:46.720Z,56.29
2023-01-19T22:43:56.680Z,53.17
2023-01-19T22:47:05.853Z,50.98
2023-01-19T22:50:13.511Z,54.68
2023-01-19T22:53:20.073Z,52.41
2023-01-19T22:56:28.944Z,53.46
2023-01-19T22:59:35.617Z,51.97
2023-01-19T23:02:44.053Z,51.10
2023-01-19T23:05:50.748Z,49.54
2023-01-19T23:09:00.491Z,50.07
2023-01-19T23:12:08.009Z,50.83
2023-01-19T23:15:14.909Z,51.57
2023-01-19T23:18:24.241Z,50.52
2023-01-19T23:21:33.558Z,49.92
2023-01-19T23:24:40.402Z,49.84
2023-01-19T23:27:46.247Z,50.98
2023-01-19T23:30:53.031Z,54.52
2023-01-19T23:34:05.034Z,60.42
2023-01-19T23:37:12.027Z,56.95
2023-01-19T23:40:18.314Z,55.46
2023-01-19T23:43:24.894Z,54.85
2023-01-19T23:46:31.396Z,56.82
2023-01-19T23:49:41.355Z,59.35
2023-01-19T23:52:47.310Z,57.67
2023-01-19T23:55:53.950Z,55.84
2023-01-19T23:59:02.792Z,57.29
